sensor_id;sensor_type;location;lat;lon;timestamp;P1;durP1;ratioP1;P2;durP2;ratioP2
71838;SDS011;59687;37.520;15.068;2022-11-10T00:01:07;10.70;;;6.78;;
71838;SDS011;59687;37.520;15.068;2022-11-10T00:03:53;13.05;;;6.63;;
71838;SDS011;59687;37.520;15.068;2022-11-10T00:06:40;12.85;;;7.90;;
71838;SDS011;59687;37.520;15.068;2022-11-10T00:09:26;10.03;;;6.83;;
71838;SDS011;59687;37.520;15.068;2022-11-10T00:12:11;10.55;;;6.30;;
71838;SDS011;59687;37.520;15.068;2022-11-10T00:14:58;10.77;;;6.38;;
71838;SDS011;59687;37.520;15.068;2022-11-10T00:18:02;11.15;;;7.45;;
71838;SDS011;59687;37.520;15.068;2022-11-10T00:20:49;13.20;;;7.07;;
71838;SDS011;59687;37.520;15.068;2022-11-10T00:23:37;10.77;;;6.50;;
71838;SDS011;59687;37.520;15.068;2022-11-10T00:26:24;12.70;;;7.00;;
71838;SDS011;59687;37.520;15.068;2022-11-10T00:29:09;11.98;;;6.85;;
71838;SDS011;59687;37.520;15.068;2022-11-10T00:31:55;9.90;;;6.93;;
71838;SDS011;59687;37.520;15.068;2022-11-10T00:34:40;11.73;;;7.22;;
71838;SDS011;59687;37.520;15.068;2022-11-10T00:37:29;10.90;;;7.23;;
71838;SDS011;59687;37.520;15.068;2022-11-10T00:40:14;12.90;;;7.32;;
71838;SDS011;59687;37.520;15.068;2022-11-10T00:43:01;12.50;;;8.02;;
71838;SDS011;59687;37.520;15.068;2022-11-10T00:45:46;14.07;;;8.07;;
71838;SDS011;59687;37.520;15.068;2022-11-10T00:48:36;12.27;;;8.05;;
71838;SDS011;59687;37.520;15.068;2022-11-10T00:51:23;12.40;;;7.80;;
71838;SDS011;59687;37.520;15.068;2022-11-10T00:54:11;16.88;;;9.15;;
71838;SDS011;59687;37.520;15.068;2022-11-10T00:56:57;15.38;;;8.85;;
71838;SDS011;59687;37.520;15.068;2022-11-10T00:59:46;17.08;;;8.88;;
71838;SDS011;59687;37.520;15.068;2022-11-10T01:02:32;16.73;;;9.35;;
71838;SDS011;59687;37.520;15.068;2022-11-10T01:05:20;15.30;;;8.97;;
71838;SDS011;59687;37.520;15.068;2022-11-10T01:08:05;13.15;;;9.25;;
71838;SDS011;59687;37.520;15.068;2022-11-10T01:10:51;13.27;;;8.70;;
71838;SDS011;59687;37.520;15.068;2022-11-10T01:13:36;15.52;;;9.20;;
71838;SDS011;59687;37.520;15.068;2022-11-10T01:16:23;14.82;;;9.73;;
71838;SDS011;59687;37.520;15.068;2022-11-10T01:19:10;17.70;;;10.30;;
71838;SDS011;59687;37.520;15.068;2022-11-10T01:21:56;14.65;;;8.90;;
71838;SDS011;59687;37.520;15.068;2022-11-10T01:24:42;18.65;;;9.63;;
71838;SDS011;59687;37.520;15.068;2022-11-10T01:27:28;15.65;;;9.57;;
71838;SDS011;59687;37.520;15.068;2022-11-10T01:30:14;13.38;;;9.43;;
71838;SDS011;59687;37.520;15.068;2022-11-10T01:32:59;16.47;;;10.07;;
71838;SDS011;59687;37.520;15.068;2022-11-10T01:35:44;15.55;;;10.27;;
71838;SDS011;59687;37.520;15.068;2022-11-10T01:38:31;15.02;;;9.88;;
71838;SDS011;59687;37.520;15.068;2022-11-10T01:41:18;15.50;;;9.88;;
71838;SDS011;59687;37.520;15.068;2022-11-10T01:44:12;16.88;;;10.40;;
71838;SDS011;59687;37.520;15.068;2022-11-10T01:47:00;16.17;;;10.23;;
71838;SDS011;59687;37.520;15.068;2022-11-10T01:49:45;14.98;;;9.75;;
71838;SDS011;59687;37.520;15.068;2022-11-10T01:52:31;14.65;;;9.60;;
71838;SDS011;59687;37.520;15.068;2022-11-10T01:55:04;15.77;;;10.32;;
71838;SDS011;59687;37.520;15.068;2022-11-10T01:57:50;15.23;;;10.63;;
71838;SDS011;59687;37.520;15.068;2022-11-10T02:00:36;15.73;;;10.40;;
71838;SDS011;59687;37.520;15.068;2022-11-10T02:03:33;15.95;;;10.40;;
71838;SDS011;59687;37.520;15.068;2022-11-10T02:06:22;15.15;;;10.43;;
71838;SDS011;59687;37.520;15.068;2022-11-10T02:09:10;15.00;;;10.02;;
71838;SDS011;59687;37.520;15.068;2022-11-10T02:11:56;15.68;;;10.40;;
71838;SDS011;59687;37.520;15.068;2022-11-10T02:14:42;15.23;;;9.87;;
71838;SDS011;59687;37.520;15.068;2022-11-10T02:17:27;15.13;;;10.15;;
71838;SDS011;59687;37.520;15.068;2022-11-10T02:20:17;16.60;;;10.27;;
71838;SDS011;59687;37.520;15.068;2022-11-10T02:23:14;15.48;;;10.30;;
71838;SDS011;59687;37.520;15.068;2022-11-10T02:26:23;16.65;;;10.05;;
71838;SDS011;59687;37.520;15.068;2022-11-10T02:29:13;15.17;;;10.23;;
71838;SDS011;59687;37.520;15.068;2022-11-10T02:31:59;14.20;;;9.38;;
71838;SDS011;59687;37.520;15.068;2022-11-10T02:34:46;14.57;;;9.70;;
71838;SDS011;59687;37.520;15.068;2022-11-10T02:37:31;16.75;;;9.50;;
71838;SDS011;59687;37.520;15.068;2022-11-10T02:40:17;14.70;;;9.38;;
71838;SDS011;59687;37.520;15.068;2022-11-10T02:43:04;14.93;;;9.50;;
71838;SDS011;59687;37.520;15.068;2022-11-10T02:45:53;15.15;;;9.82;;
71838;SDS011;59687;37.520;15.068;2022-11-10T02:48:38;17.58;;;10.02;;
71838;SDS011;59687;37.520;15.068;2022-11-10T02:51:23;14.05;;;9.32;;
71838;SDS011;59687;37.520;15.068;2022-11-10T02:54:09;14.45;;;9.77;;
71838;SDS011;59687;37.520;15.068;2022-11-10T02:56:54;13.47;;;8.67;;
71838;SDS011;59687;37.520;15.068;2022-11-10T02:59:40;14.30;;;9.38;;
71838;SDS011;59687;37.520;15.068;2022-11-10T03:02:28;13.75;;;8.68;;
71838;SDS011;59687;37.520;15.068;2022-11-10T03:05:15;16.33;;;9.85;;
71838;SDS011;59687;37.520;15.068;2022-11-10T03:08:03;14.98;;;8.73;;
71838;SDS011;59687;37.520;15.068;2022-11-10T03:10:51;14.53;;;8.83;;
71838;SDS011;59687;37.520;15.068;2022-11-10T03:13:38;11.88;;;8.73;;
71838;SDS011;59687;37.520;15.068;2022-11-10T03:16:42;13.23;;;9.07;;
71838;SDS011;59687;37.520;15.068;2022-11-10T03:19:31;13.35;;;8.77;;
71838;SDS011;59687;37.520;15.068;2022-11-10T03:22:16;12.90;;;7.95;;
71838;SDS011;59687;37.520;15.068;2022-11-10T03:25:02;12.87;;;8.33;;
71838;SDS011;59687;37.520;15.068;2022-11-10T03:27:49;13.38;;;8.10;;
71838;SDS011;59687;37.520;15.068;2022-11-10T03:30:34;13.40;;;7.68;;
71838;SDS011;59687;37.520;15.068;2022-11-10T03:33:20;10.23;;;7.05;;
71838;SDS011;59687;37.520;15.068;2022-11-10T03:36:09;11.95;;;6.68;;
71838;SDS011;59687;37.520;15.068;2022-11-10T03:38:55;12.00;;;7.20;;
71838;SDS011;59687;37.520;15.068;2022-11-10T03:41:40;12.93;;;7.80;;
71838;SDS011;59687;37.520;15.068;2022-11-10T03:44:27;12.82;;;8.15;;
71838;SDS011;59687;37.520;15.068;2022-11-10T03:47:12;12.85;;;8.27;;
71838;SDS011;59687;37.520;15.068;2022-11-10T03:49:57;13.13;;;8.40;;
71838;SDS011;59687;37.520;15.068;2022-11-10T03:52:44;13.10;;;7.70;;
71838;SDS011;59687;37.520;15.068;2022-11-10T03:55:30;13.82;;;8.10;;
71838;SDS011;59687;37.520;15.068;2022-11-10T03:58:16;12.60;;;7.40;;
71838;SDS011;59687;37.520;15.068;2022-11-10T04:01:02;12.45;;;7.10;;
71838;SDS011;59687;37.520;15.068;2022-11-10T04:03:47;9.65;;;6.75;;
71838;SDS011;59687;37.520;15.068;2022-11-10T04:06:35;10.30;;;6.47;;
71838;SDS011;59687;37.520;15.068;2022-11-10T04:09:39;9.90;;;6.30;;
71838;SDS011;59687;37.520;15.068;2022-11-10T04:12:25;10.10;;;6.10;;
71838;SDS011;59687;37.520;15.068;2022-11-10T04:15:30;12.52;;;7.57;;
71838;SDS011;59687;37.520;15.068;2022-11-10T04:18:28;8.50;;;5.35;;
71838;SDS011;59687;37.520;15.068;2022-11-10T04:21:15;9.03;;;5.60;;
71838;SDS011;59687;37.520;15.068;2022-11-10T04:24:01;12.02;;;5.30;;
71838;SDS011;59687;37.520;15.068;2022-11-10T04:26:49;10.95;;;5.45;;
71838;SDS011;59687;37.520;15.068;2022-11-10T04:29:35;8.38;;;4.97;;
71838;SDS011;59687;37.520;15.068;2022-11-10T04:32:20;7.57;;;5.28;;
71838;SDS011;59687;37.520;15.068;2022-11-10T04:35:05;7.90;;;5.43;;
71838;SDS011;59687;37.520;15.068;2022-11-10T04:37:54;8.75;;;5.63;;
71838;SDS011;59687;37.520;15.068;2022-11-10T04:40:42;7.43;;;4.55;;
71838;SDS011;59687;37.520;15.068;2022-11-10T04:43:29;8.60;;;4.65;;
71838;SDS011;59687;37.520;15.068;2022-11-10T04:46:24;8.30;;;4.40;;
71838;SDS011;59687;37.520;15.068;2022-11-10T04:49:10;6.87;;;4.43;;
71838;SDS011;59687;37.520;15.068;2022-11-10T04:51:57;9.75;;;5.03;;
71838;SDS011;59687;37.520;15.068;2022-11-10T04:54:43;7.90;;;4.28;;
71838;SDS011;59687;37.520;15.068;2022-11-10T04:57:29;8.25;;;4.68;;
71838;SDS011;59687;37.520;15.068;2022-11-10T05:00:15;8.00;;;4.30;;
71838;SDS011;59687;37.520;15.068;2022-11-10T05:03:01;8.50;;;4.33;;
71838;SDS011;59687;37.520;15.068;2022-11-10T05:05:48;7.40;;;4.20;;
71838;SDS011;59687;37.520;15.068;2022-11-10T05:08:34;7.43;;;4.15;;
71838;SDS011;59687;37.520;15.068;2022-11-10T05:11:20;8.65;;;4.72;;
71838;SDS011;59687;37.520;15.068;2022-11-10T05:14:07;8.45;;;5.05;;
71838;SDS011;59687;37.520;15.068;2022-11-10T05:16:54;6.47;;;4.13;;
71838;SDS011;59687;37.520;15.068;2022-11-10T05:19:39;7.30;;;4.13;;
71838;SDS011;59687;37.520;15.068;2022-11-10T05:22:25;7.22;;;4.53;;
71838;SDS011;59687;37.520;15.068;2022-11-10T05:25:10;7.80;;;4.40;;
71838;SDS011;59687;37.520;15.068;2022-11-10T05:27:56;7.22;;;4.40;;
71838;SDS011;59687;37.520;15.068;2022-11-10T05:30:42;8.43;;;5.07;;
71838;SDS011;59687;37.520;15.068;2022-11-10T05:33:28;10.07;;;5.00;;
71838;SDS011;59687;37.520;15.068;2022-11-10T05:36:14;7.85;;;4.75;;
71838;SDS011;59687;37.520;15.068;2022-11-10T05:38:59;8.07;;;5.05;;
71838;SDS011;59687;37.520;15.068;2022-11-10T05:41:46;11.60;;;5.65;;
71838;SDS011;59687;37.520;15.068;2022-11-10T05:44:31;10.60;;;5.80;;
71838;SDS011;59687;37.520;15.068;2022-11-10T05:47:17;8.57;;;5.45;;
71838;SDS011;59687;37.520;15.068;2022-11-10T05:50:02;10.55;;;4.95;;
71838;SDS011;59687;37.520;15.068;2022-11-10T05:52:52;9.77;;;4.63;;
71838;SDS011;59687;37.520;15.068;2022-11-10T05:55:39;10.52;;;5.30;;
71838;SDS011;59687;37.520;15.068;2022-11-10T05:58:26;7.87;;;4.47;;
71838;SDS011;59687;37.520;15.068;2022-11-10T06:01:12;7.60;;;4.70;;
71838;SDS011;59687;37.520;15.068;2022-11-10T06:03:57;10.00;;;5.05;;
71838;SDS011;59687;37.520;15.068;2022-11-10T06:06:42;8.60;;;4.63;;
71838;SDS011;59687;37.520;15.068;2022-11-10T06:09:28;10.38;;;4.60;;
71838;SDS011;59687;37.520;15.068;2022-11-10T06:12:16;10.13;;;4.80;;
71838;SDS011;59687;37.520;15.068;2022-11-10T06:15:02;7.68;;;4.50;;
71838;SDS011;59687;37.520;15.068;2022-11-10T06:17:48;7.18;;;4.57;;
71838;SDS011;59687;37.520;15.068;2022-11-10T06:20:38;7.40;;;4.50;;
71838;SDS011;59687;37.520;15.068;2022-11-10T06:23:23;8.18;;;4.78;;
71838;SDS011;59687;37.520;15.068;2022-11-10T06:26:09;8.13;;;4.10;;
71838;SDS011;59687;37.520;15.068;2022-11-10T06:28:54;10.88;;;4.57;;
71838;SDS011;59687;37.520;15.068;2022-11-10T06:31:42;7.85;;;4.13;;
71838;SDS011;59687;37.520;15.068;2022-11-10T06:34:27;9.10;;;4.72;;
71838;SDS011;59687;37.520;15.068;2022-11-10T06:37:14;9.73;;;4.65;;
71838;SDS011;59687;37.520;15.068;2022-11-10T06:39:59;7.67;;;4.60;;
71838;SDS011;59687;37.520;15.068;2022-11-10T06:42:45;7.30;;;4.60;;
71838;SDS011;59687;37.520;15.068;2022-11-10T06:45:32;9.13;;;4.90;;
71838;SDS011;59687;37.520;15.068;2022-11-10T06:48:17;9.45;;;5.10;;
71838;SDS011;59687;37.520;15.068;2022-11-10T06:51:03;8.60;;;5.82;;
71838;SDS011;59687;37.520;15.068;2022-11-10T06:53:49;8.47;;;5.83;;
71838;SDS011;59687;37.520;15.068;2022-11-10T06:56:34;9.65;;;6.50;;
71838;SDS011;59687;37.520;15.068;2022-11-10T06:59:21;9.93;;;6.22;;
71838;SDS011;59687;37.520;15.068;2022-11-10T07:02:12;11.25;;;6.40;;
71838;SDS011;59687;37.520;15.068;2022-11-10T07:04:58;11.15;;;6.18;;
71838;SDS011;59687;37.520;15.068;2022-11-10T07:07:43;9.33;;;6.50;;
71838;SDS011;59687;37.520;15.068;2022-11-10T07:10:29;9.93;;;6.25;;
71838;SDS011;59687;37.520;15.068;2022-11-10T07:13:14;10.93;;;7.22;;
71838;SDS011;59687;37.520;15.068;2022-11-10T07:16:02;10.63;;;6.35;;
71838;SDS011;59687;37.520;15.068;2022-11-10T07:18:52;11.27;;;6.97;;
71838;SDS011;59687;37.520;15.068;2022-11-10T07:21:39;12.23;;;7.83;;
71838;SDS011;59687;37.520;15.068;2022-11-10T07:24:28;11.00;;;7.57;;
71838;SDS011;59687;37.520;15.068;2022-11-10T07:27:14;12.75;;;7.80;;
71838;SDS011;59687;37.520;15.068;2022-11-10T07:29:59;12.02;;;8.13;;
71838;SDS011;59687;37.520;15.068;2022-11-10T07:32:44;13.95;;;8.35;;
71838;SDS011;59687;37.520;15.068;2022-11-10T07:35:32;10.80;;;7.10;;
71838;SDS011;59687;37.520;15.068;2022-11-10T07:38:18;12.45;;;8.27;;
71838;SDS011;59687;37.520;15.068;2022-11-10T07:41:03;12.85;;;8.15;;
71838;SDS011;59687;37.520;15.068;2022-11-10T07:43:52;11.50;;;8.02;;
71838;SDS011;59687;37.520;15.068;2022-11-10T07:46:40;11.00;;;7.63;;
71838;SDS011;59687;37.520;15.068;2022-11-10T07:49:26;10.40;;;8.27;;
71838;SDS011;59687;37.520;15.068;2022-11-10T07:52:11;12.07;;;7.80;;
71838;SDS011;59687;37.520;15.068;2022-11-10T07:54:57;11.20;;;8.40;;
71838;SDS011;59687;37.520;15.068;2022-11-10T07:57:42;10.57;;;8.07;;
71838;SDS011;59687;37.520;15.068;2022-11-10T08:00:28;12.65;;;7.30;;
71838;SDS011;59687;37.520;15.068;2022-11-10T08:03:15;12.67;;;7.90;;
71838;SDS011;59687;37.520;15.068;2022-11-10T08:06:04;12.57;;;7.18;;
71838;SDS011;59687;37.520;15.068;2022-11-10T08:08:51;12.25;;;7.63;;
71838;SDS011;59687;37.520;15.068;2022-11-10T08:11:36;12.90;;;7.85;;
71838;SDS011;59687;37.520;15.068;2022-11-10T08:14:21;11.32;;;7.38;;
71838;SDS011;59687;37.520;15.068;2022-11-10T08:17:07;13.00;;;8.87;;
71838;SDS011;59687;37.520;15.068;2022-11-10T08:19:52;18.33;;;9.57;;
71838;SDS011;59687;37.520;15.068;2022-11-10T08:22:41;16.88;;;10.18;;
71838;SDS011;59687;37.520;15.068;2022-11-10T08:25:29;15.90;;;9.93;;
71838;SDS011;59687;37.520;15.068;2022-11-10T08:28:18;20.98;;;10.07;;
71838;SDS011;59687;37.520;15.068;2022-11-10T08:31:07;15.90;;;9.23;;
71838;SDS011;59687;37.520;15.068;2022-11-10T08:33:53;13.05;;;8.50;;
71838;SDS011;59687;37.520;15.068;2022-11-10T08:36:39;16.13;;;9.10;;
71838;SDS011;59687;37.520;15.068;2022-11-10T08:39:28;13.45;;;8.63;;
71838;SDS011;59687;37.520;15.068;2022-11-10T08:42:22;10.43;;;7.78;;
71838;SDS011;59687;37.520;15.068;2022-11-10T08:45:07;11.90;;;7.83;;
71838;SDS011;59687;37.520;15.068;2022-11-10T08:48:02;13.93;;;7.85;;
71838;SDS011;59687;37.520;15.068;2022-11-10T08:50:49;11.10;;;7.10;;
71838;SDS011;59687;37.520;15.068;2022-11-10T08:53:35;13.27;;;7.68;;
71838;SDS011;59687;37.520;15.068;2022-11-10T08:56:20;12.13;;;7.13;;
71838;SDS011;59687;37.520;15.068;2022-11-10T08:59:06;12.77;;;7.10;;
71838;SDS011;59687;37.520;15.068;2022-11-10T09:01:52;13.23;;;7.97;;
71838;SDS011;59687;37.520;15.068;2022-11-10T09:04:37;9.48;;;7.50;;
71838;SDS011;59687;37.520;15.068;2022-11-10T09:07:23;10.70;;;6.70;;
71838;SDS011;59687;37.520;15.068;2022-11-10T09:10:08;11.57;;;7.10;;
71838;SDS011;59687;37.520;15.068;2022-11-10T09:12:57;11.27;;;6.90;;
71838;SDS011;59687;37.520;15.068;2022-11-10T09:15:44;13.95;;;7.53;;
71838;SDS011;59687;37.520;15.068;2022-11-10T09:18:31;13.15;;;6.97;;
71838;SDS011;59687;37.520;15.068;2022-11-10T09:21:18;9.98;;;6.90;;
71838;SDS011;59687;37.520;15.068;2022-11-10T09:24:04;11.05;;;6.78;;
71838;SDS011;59687;37.520;15.068;2022-11-10T09:26:50;10.00;;;6.97;;
71838;SDS011;59687;37.520;15.068;2022-11-10T09:29:35;11.63;;;7.55;;
71838;SDS011;59687;37.520;15.068;2022-11-10T09:32:23;11.45;;;6.65;;
71838;SDS011;59687;37.520;15.068;2022-11-10T09:35:08;10.75;;;6.85;;
71838;SDS011;59687;37.520;15.068;2022-11-10T09:37:54;13.82;;;7.05;;
71838;SDS011;59687;37.520;15.068;2022-11-10T09:40:59;12.60;;;7.00;;
71838;SDS011;59687;37.520;15.068;2022-11-10T09:46:57;10.82;;;6.63;;
71838;SDS011;59687;37.520;15.068;2022-11-10T09:49:54;12.70;;;7.07;;
71838;SDS011;59687;37.520;15.068;2022-11-10T09:52:43;15.20;;;6.55;;
71838;SDS011;59687;37.520;15.068;2022-11-10T09:55:41;10.20;;;6.07;;
71838;SDS011;59687;37.520;15.068;2022-11-10T09:58:34;12.82;;;6.45;;
71838;SDS011;59687;37.520;15.068;2022-11-10T10:01:45;12.70;;;6.95;;
71838;SDS011;59687;37.520;15.068;2022-11-10T10:07:54;11.93;;;6.20;;
71838;SDS011;59687;37.520;15.068;2022-11-10T10:10:47;10.87;;;5.87;;
71838;SDS011;59687;37.520;15.068;2022-11-10T10:23:09;8.73;;;5.35;;
71838;SDS011;59687;37.520;15.068;2022-11-10T10:26:01;11.30;;;5.63;;
71838;SDS011;59687;37.520;15.068;2022-11-10T10:28:47;11.02;;;5.30;;
71838;SDS011;59687;37.520;15.068;2022-11-10T10:31:39;7.93;;;5.60;;
71838;SDS011;59687;37.520;15.068;2022-11-10T10:34:28;11.05;;;5.45;;
71838;SDS011;59687;37.520;15.068;2022-11-10T10:37:25;8.55;;;4.60;;
71838;SDS011;59687;37.520;15.068;2022-11-10T10:40:25;8.73;;;5.43;;
71838;SDS011;59687;37.520;15.068;2022-11-10T10:43:11;8.63;;;5.25;;
71838;SDS011;59687;37.520;15.068;2022-11-10T10:46:02;8.52;;;5.35;;
71838;SDS011;59687;37.520;15.068;2022-11-10T10:49:11;10.23;;;5.63;;
71838;SDS011;59687;37.520;15.068;2022-11-10T10:52:13;7.95;;;4.97;;
71838;SDS011;59687;37.520;15.068;2022-11-10T10:55:09;7.77;;;4.53;;
71838;SDS011;59687;37.520;15.068;2022-11-10T10:58:04;8.77;;;4.80;;
71838;SDS011;59687;37.520;15.068;2022-11-10T11:03:59;7.75;;;4.55;;
71838;SDS011;59687;37.520;15.068;2022-11-10T11:07:35;9.70;;;5.28;;
71838;SDS011;59687;37.520;15.068;2022-11-10T11:10:20;9.47;;;4.80;;
71838;SDS011;59687;37.520;15.068;2022-11-10T11:13:11;9.70;;;5.10;;
71838;SDS011;59687;37.520;15.068;2022-11-10T11:16:05;9.07;;;4.95;;
71838;SDS011;59687;37.520;15.068;2022-11-10T11:18:53;7.85;;;4.75;;
71838;SDS011;59687;37.520;15.068;2022-11-10T11:25:01;9.27;;;4.90;;
71838;SDS011;59687;37.520;15.068;2022-11-10T11:31:14;9.63;;;4.90;;
71838;SDS011;59687;37.520;15.068;2022-11-10T11:44:13;8.75;;;4.72;;
71838;SDS011;59687;37.520;15.068;2022-11-10T11:47:38;9.73;;;4.95;;
71838;SDS011;59687;37.520;15.068;2022-11-10T11:51:24;7.43;;;4.72;;
71838;SDS011;59687;37.520;15.068;2022-11-10T11:57:31;11.83;;;5.47;;
71838;SDS011;59687;37.520;15.068;2022-11-10T12:00:22;9.30;;;5.13;;
71838;SDS011;59687;37.520;15.068;2022-11-10T12:03:21;8.80;;;5.10;;
71838;SDS011;59687;37.520;15.068;2022-11-10T12:06:38;7.22;;;4.45;;
71838;SDS011;59687;37.520;15.068;2022-11-10T12:09:46;7.78;;;4.60;;
71838;SDS011;59687;37.520;15.068;2022-11-10T12:15:42;9.30;;;4.80;;
71838;SDS011;59687;37.520;15.068;2022-11-10T12:28:08;10.07;;;4.57;;
71838;SDS011;59687;37.520;15.068;2022-11-10T12:31:11;8.27;;;5.63;;
71838;SDS011;59687;37.520;15.068;2022-11-10T12:34:45;10.30;;;4.90;;
71838;SDS011;59687;37.520;15.068;2022-11-10T12:37:24;8.68;;;5.00;;
71838;SDS011;59687;37.520;15.068;2022-11-10T12:40:29;7.97;;;5.10;;
71838;SDS011;59687;37.520;15.068;2022-11-10T12:43:24;9.07;;;4.83;;
71838;SDS011;59687;37.520;15.068;2022-11-10T12:46:18;7.05;;;4.43;;
71838;SDS011;59687;37.520;15.068;2022-11-10T12:55:03;8.90;;;5.68;;
71838;SDS011;59687;37.520;15.068;2022-11-10T12:57:48;8.20;;;4.70;;
71838;SDS011;59687;37.520;15.068;2022-11-10T13:00:40;9.55;;;5.22;;
71838;SDS011;59687;37.520;15.068;2022-11-10T13:03:38;7.38;;;4.63;;
71838;SDS011;59687;37.520;15.068;2022-11-10T13:06:50;9.38;;;5.30;;
71838;SDS011;59687;37.520;15.068;2022-11-10T13:09:43;9.95;;;5.07;;
71838;SDS011;59687;37.520;15.068;2022-11-10T13:12:28;7.70;;;5.23;;
71838;SDS011;59687;37.520;15.068;2022-11-10T13:15:57;7.57;;;4.88;;
71838;SDS011;59687;37.520;15.068;2022-11-10T13:21:15;11.05;;;4.78;;
71838;SDS011;59687;37.520;15.068;2022-11-10T13:26:53;6.53;;;4.57;;
71838;SDS011;59687;37.520;15.068;2022-11-10T13:32:33;10.18;;;4.80;;
71838;SDS011;59687;37.520;15.068;2022-11-10T13:41:23;7.57;;;4.20;;
71838;SDS011;59687;37.520;15.068;2022-11-10T13:44:24;7.22;;;4.10;;
71838;SDS011;59687;37.520;15.068;2022-11-10T13:50:24;8.45;;;3.85;;
71838;SDS011;59687;37.520;15.068;2022-11-10T13:54:01;5.60;;;4.05;;
71838;SDS011;59687;37.520;15.068;2022-11-10T13:57:11;7.67;;;4.03;;
71838;SDS011;59687;37.520;15.068;2022-11-10T14:00:05;7.30;;;4.40;;
71838;SDS011;59687;37.520;15.068;2022-11-10T14:03:06;9.40;;;4.47;;
71838;SDS011;59687;37.520;15.068;2022-11-10T14:12:02;9.77;;;4.70;;
71838;SDS011;59687;37.520;15.068;2022-11-10T14:15:19;10.52;;;4.50;;
71838;SDS011;59687;37.520;15.068;2022-11-10T14:21:19;9.18;;;4.63;;
71838;SDS011;59687;37.520;15.068;2022-11-10T14:24:18;12.18;;;5.28;;
71838;SDS011;59687;37.520;15.068;2022-11-10T14:27:19;7.27;;;5.00;;
71838;SDS011;59687;37.520;15.068;2022-11-10T14:33:08;9.02;;;4.88;;
71838;SDS011;59687;37.520;15.068;2022-11-10T14:35:59;10.82;;;5.40;;
71838;SDS011;59687;37.520;15.068;2022-11-10T14:38:47;10.38;;;5.40;;
71838;SDS011;59687;37.520;15.068;2022-11-10T14:41:34;9.60;;;6.23;;
71838;SDS011;59687;37.520;15.068;2022-11-10T14:44:22;10.02;;;5.70;;
71838;SDS011;59687;37.520;15.068;2022-11-10T14:47:29;9.93;;;5.75;;
71838;SDS011;59687;37.520;15.068;2022-11-10T14:50:25;10.23;;;8.07;;
71838;SDS011;59687;37.520;15.068;2022-11-10T14:56:00;7.27;;;5.83;;
71838;SDS011;59687;37.520;15.068;2022-11-10T14:58:48;8.95;;;5.55;;
71838;SDS011;59687;37.520;15.068;2022-11-10T15:01:35;9.57;;;6.13;;
71838;SDS011;59687;37.520;15.068;2022-11-10T15:04:25;14.13;;;7.38;;
71838;SDS011;59687;37.520;15.068;2022-11-10T15:07:14;11.93;;;7.35;;
71838;SDS011;59687;37.520;15.068;2022-11-10T15:10:09;10.40;;;6.77;;
71838;SDS011;59687;37.520;15.068;2022-11-10T15:13:03;11.10;;;6.80;;
71838;SDS011;59687;37.520;15.068;2022-11-10T15:15:50;10.48;;;6.68;;
71838;SDS011;59687;37.520;15.068;2022-11-10T15:18:37;11.75;;;8.43;;
71838;SDS011;59687;37.520;15.068;2022-11-10T15:21:29;11.23;;;7.03;;
71838;SDS011;59687;37.520;15.068;2022-11-10T15:24:18;14.43;;;7.77;;
71838;SDS011;59687;37.520;15.068;2022-11-10T15:27:04;12.85;;;7.50;;
71838;SDS011;59687;37.520;15.068;2022-11-10T15:29:51;9.57;;;6.80;;
71838;SDS011;59687;37.520;15.068;2022-11-10T15:32:41;15.65;;;10.70;;
71838;SDS011;59687;37.520;15.068;2022-11-10T15:35:30;11.05;;;8.43;;
71838;SDS011;59687;37.520;15.068;2022-11-10T15:41:12;10.15;;;7.80;;
71838;SDS011;59687;37.520;15.068;2022-11-10T15:44:29;8.95;;;7.00;;
71838;SDS011;59687;37.520;15.068;2022-11-10T15:47:14;13.35;;;8.27;;
71838;SDS011;59687;37.520;15.068;2022-11-10T15:50:07;12.73;;;8.43;;
71838;SDS011;59687;37.520;15.068;2022-11-10T15:52:56;10.30;;;8.37;;
71838;SDS011;59687;37.520;15.068;2022-11-10T15:55:45;14.75;;;8.65;;
71838;SDS011;59687;37.520;15.068;2022-11-10T15:58:31;12.70;;;9.32;;
71838;SDS011;59687;37.520;15.068;2022-11-10T16:01:18;9.52;;;7.90;;
71838;SDS011;59687;37.520;15.068;2022-11-10T16:04:06;12.52;;;10.77;;
71838;SDS011;59687;37.520;15.068;2022-11-10T16:06:55;13.50;;;9.33;;
71838;SDS011;59687;37.520;15.068;2022-11-10T16:09:42;16.30;;;10.77;;
71838;SDS011;59687;37.520;15.068;2022-11-10T16:12:27;10.52;;;7.80;;
71838;SDS011;59687;37.520;15.068;2022-11-10T16:15:15;14.30;;;10.60;;
71838;SDS011;59687;37.520;15.068;2022-11-10T16:18:12;11.82;;;9.02;;
71838;SDS011;59687;37.520;15.068;2022-11-10T16:20:58;11.83;;;9.23;;
71838;SDS011;59687;37.520;15.068;2022-11-10T16:23:48;14.52;;;9.15;;
71838;SDS011;59687;37.520;15.068;2022-11-10T16:26:34;13.13;;;8.77;;
71838;SDS011;59687;37.520;15.068;2022-11-10T16:29:20;15.90;;;9.45;;
71838;SDS011;59687;37.520;15.068;2022-11-10T16:32:05;15.40;;;10.35;;
71838;SDS011;59687;37.520;15.068;2022-11-10T16:34:51;12.37;;;9.43;;
71838;SDS011;59687;37.520;15.068;2022-11-10T16:37:36;15.80;;;10.38;;
71838;SDS011;59687;37.520;15.068;2022-11-10T16:40:23;14.68;;;10.80;;
71838;SDS011;59687;37.520;15.068;2022-11-10T16:43:12;11.88;;;10.40;;
71838;SDS011;59687;37.520;15.068;2022-11-10T16:46:03;13.20;;;10.88;;
71838;SDS011;59687;37.520;15.068;2022-11-10T16:48:58;13.10;;;11.13;;
71838;SDS011;59687;37.520;15.068;2022-11-10T16:51:45;17.80;;;11.23;;
71838;SDS011;59687;37.520;15.068;2022-11-10T16:54:32;14.10;;;11.35;;
71838;SDS011;59687;37.520;15.068;2022-11-10T16:57:21;13.93;;;10.43;;
71838;SDS011;59687;37.520;15.068;2022-11-10T17:00:09;14.98;;;11.32;;
71838;SDS011;59687;37.520;15.068;2022-11-10T17:03:00;14.90;;;10.03;;
71838;SDS011;59687;37.520;15.068;2022-11-10T17:06:05;15.15;;;10.30;;
71838;SDS011;59687;37.520;15.068;2022-11-10T17:09:00;16.00;;;11.25;;
71838;SDS011;59687;37.520;15.068;2022-11-10T17:11:58;13.77;;;9.85;;
71838;SDS011;59687;37.520;15.068;2022-11-10T17:14:44;14.48;;;10.15;;
71838;SDS011;59687;37.520;15.068;2022-11-10T17:17:31;13.00;;;10.00;;
71838;SDS011;59687;37.520;15.068;2022-11-10T17:20:27;14.55;;;11.27;;
71838;SDS011;59687;37.520;15.068;2022-11-10T17:23:19;16.77;;;12.10;;
71838;SDS011;59687;37.520;15.068;2022-11-10T17:26:10;18.70;;;11.55;;
71838;SDS011;59687;37.520;15.068;2022-11-10T17:29:01;22.60;;;14.32;;
71838;SDS011;59687;37.520;15.068;2022-11-10T17:31:48;23.33;;;16.87;;
71838;SDS011;59687;37.520;15.068;2022-11-10T17:34:34;20.63;;;14.93;;
71838;SDS011;59687;37.520;15.068;2022-11-10T17:37:23;22.27;;;15.60;;
71838;SDS011;59687;37.520;15.068;2022-11-10T17:43:00;24.90;;;16.13;;
71838;SDS011;59687;37.520;15.068;2022-11-10T17:45:47;27.57;;;15.90;;
71838;SDS011;59687;37.520;15.068;2022-11-10T17:48:37;29.25;;;18.55;;
71838;SDS011;59687;37.520;15.068;2022-11-10T17:51:22;27.65;;;19.75;;
71838;SDS011;59687;37.520;15.068;2022-11-10T17:54:12;26.13;;;17.98;;
71838;SDS011;59687;37.520;15.068;2022-11-10T17:57:04;27.60;;;18.02;;
71838;SDS011;59687;37.520;15.068;2022-11-10T17:59:52;27.10;;;17.50;;
71838;SDS011;59687;37.520;15.068;2022-11-10T18:02:39;26.90;;;16.70;;
71838;SDS011;59687;37.520;15.068;2022-11-10T18:05:25;26.55;;;17.33;;
71838;SDS011;59687;37.520;15.068;2022-11-10T18:08:12;21.05;;;14.90;;
71838;SDS011;59687;37.520;15.068;2022-11-10T18:11:00;22.20;;;15.07;;